createdAt,value
2019-06-08T00:05:24.732Z,11.57
2019-06-08T00:11:26.917Z,12.95
2019-06-08T00:17:37.954Z,13.18
2019-06-08T00:23:33.544Z,15.58
2019-06-08T00:29:35.799Z,14.70
2019-06-08T00:35:37.915Z,15.10
2019-06-08T00:41:40.108Z,15.80
2019-06-08T00:47:47.827Z,16.35
2019-06-08T00:53:46.650Z,12.95
2019-06-08T00:59:48.879Z,31.97
2019-06-08T01:05:51.015Z,20.90
2019-06-08T01:11:53.224Z,22.98
2019-06-08T01:18:02.808Z,15.50
2019-06-08T01:23:59.768Z,14.40
2019-06-08T01:30:02.601Z,11.40
2019-06-08T01:36:04.800Z,8.85
2019-06-08T01:42:06.940Z,12.85
2019-06-08T01:48:19.293Z,11.63
2019-06-08T01:54:14.235Z,10.60
2019-06-08T02:00:29.823Z,7.17
2019-06-08T02:06:21.648Z,7.25
2019-06-08T02:12:24.783Z,7.08
2019-06-08T02:18:40.083Z,6.20
2019-06-08T02:24:31.222Z,6.95
2019-06-08T02:30:36.252Z,6.58
2019-06-08T02:36:38.057Z,3.87
2019-06-08T02:42:40.442Z,3.92
2019-06-08T02:49:02.774Z,4.92
2019-06-08T02:54:46.791Z,3.72
2019-06-08T03:00:50.653Z,2.33
2019-06-08T03:06:55.808Z,4.03
2019-06-08T03:13:00.251Z,3.12
2019-06-08T03:19:20.041Z,4.37
2019-06-08T03:25:06.657Z,2.40
2019-06-08T03:31:08.892Z,1.82
2019-06-08T03:37:11.047Z,1.95
2019-06-08T03:43:13.273Z,2.25
2019-06-08T03:49:15.709Z,1.30
2019-06-08T03:55:18.029Z,0.90
2019-06-08T04:01:22.470Z,1.25
2019-06-08T04:07:24.708Z,1.45
2019-06-08T04:13:26.937Z,2.15
2019-06-08T04:19:29.228Z,3.47
2019-06-08T04:25:31.515Z,2.15
2019-06-08T04:31:33.840Z,3.12
2019-06-08T04:37:35.985Z,2.02
2019-06-08T04:43:40.321Z,3.52
2019-06-08T04:49:43.459Z,1.55
2019-06-08T04:55:47.195Z,1.02
2019-06-08T05:01:49.978Z,1.10
2019-06-08T05:07:52.216Z,3.20
2019-06-08T05:13:55.777Z,2.40
2019-06-08T05:19:57.961Z,1.92
2019-06-08T05:26:00.135Z,1.67
2019-06-08T05:32:02.412Z,1.12
2019-06-08T05:38:04.878Z,2.67
2019-06-08T05:44:12.873Z,3.20
2019-06-08T05:50:15.235Z,2.50
2019-06-08T05:56:17.619Z,1.00
2019-06-08T06:02:22.103Z,0.60
2019-06-08T06:08:24.296Z,1.27
2019-06-08T06:14:26.487Z,3.77
2019-06-08T06:20:28.844Z,3.50
2019-06-08T06:26:36.917Z,8.50
2019-06-08T06:32:39.175Z,2.95
2019-06-08T06:38:41.893Z,3.65
2019-06-08T06:44:45.724Z,1.90
2019-06-08T06:50:48.415Z,3.30
2019-06-08T06:56:51.892Z,2.65
2019-06-08T07:02:56.891Z,3.95
2019-06-08T07:08:59.167Z,5.17
2019-06-08T07:15:01.366Z,2.67
2019-06-08T07:21:03.531Z,3.70
2019-06-08T07:27:07.571Z,3.65
2019-06-08T07:33:09.907Z,3.08
2019-06-08T07:39:12.073Z,3.12
2019-06-08T07:45:15.189Z,2.47
2019-06-08T07:51:17.572Z,5.83
2019-06-08T07:57:19.876Z,4.12
2019-06-08T08:03:24.047Z,2.67
2019-06-08T08:09:26.424Z,2.75
2019-06-08T08:15:28.656Z,2.62
2019-06-08T08:21:30.934Z,1.32
2019-06-08T08:27:33.300Z,4.17
2019-06-08T08:33:37.855Z,4.33
2019-06-08T08:39:39.534Z,2.33
2019-06-08T08:45:41.925Z,2.87
2019-06-08T08:51:44.179Z,2.60
2019-06-08T08:57:48.445Z,3.75
2019-06-08T09:03:56.031Z,4.67
2019-06-08T09:10:01.446Z,5.22
2019-06-08T09:16:03.896Z,1.02
2019-06-08T09:22:08.320Z,2.52
2019-06-08T09:28:10.317Z,2.17
2019-06-08T09:34:15.505Z,5.30
2019-06-08T09:40:18.893Z,3.05
2019-06-08T09:46:21.822Z,2.95
2019-06-08T09:52:24.050Z,3.85
2019-06-08T09:58:29.088Z,1.72
2019-06-08T10:04:34.564Z,2.77
2019-06-08T10:10:36.998Z,2.17
2019-06-08T10:16:39.441Z,3.22
2019-06-08T10:22:42.030Z,1.32
2019-06-08T10:28:44.293Z,1.87
2019-06-08T10:34:48.124Z,2.95
2019-06-08T10:41:07.117Z,1.90
2019-06-08T10:47:05.545Z,1.32
2019-06-08T10:53:10.452Z,2.20
2019-06-08T10:59:12.499Z,2.35
2019-06-08T11:05:18.120Z,1.45
2019-06-08T11:11:20.687Z,1.85
2019-06-08T11:17:23.003Z,1.52
2019-06-08T11:23:25.311Z,2.35
2019-06-08T11:29:30.660Z,2.27
2019-06-08T11:35:32.067Z,3.60
2019-06-08T11:41:34.256Z,2.87
2019-06-08T11:47:38.936Z,2.50
2019-06-08T11:53:42.747Z,3.42
2019-06-08T11:59:48.482Z,2.98
2019-06-08T12:05:51.084Z,1.90
2019-06-08T12:11:53.336Z,2.98
2019-06-08T12:17:58.269Z,2.08
2019-06-08T12:24:00.058Z,1.85
2019-06-08T12:30:08.951Z,2.70
2019-06-08T12:36:09.038Z,4.75
2019-06-08T12:42:15.635Z,1.67
2019-06-08T12:48:19.492Z,3.50
2019-06-08T12:54:20.808Z,2.95
2019-06-08T13:00:23.500Z,2.52
2019-06-08T13:06:28.340Z,3.02
2019-06-08T13:12:30.373Z,1.40
2019-06-08T13:18:32.779Z,3.08
2019-06-08T13:24:37.493Z,2.17
2019-06-08T13:30:39.481Z,2.45
2019-06-08T13:36:42.425Z,2.37
2019-06-08T13:42:44.757Z,3.05
2019-06-08T13:48:48.209Z,1.25
2019-06-08T13:54:50.987Z,1.87
2019-06-08T14:00:56.603Z,1.70
2019-06-08T14:06:58.257Z,2.65
2019-06-08T14:13:00.810Z,1.85
2019-06-08T14:19:03.205Z,3.12
2019-06-08T14:25:10.315Z,2.27
2019-06-08T14:31:10.958Z,2.80
2019-06-08T14:37:14.185Z,1.60
2019-06-08T14:43:17.748Z,2.45
2019-06-08T14:49:26.510Z,3.02
2019-06-08T14:55:24.946Z,1.22
2019-06-08T15:01:29.720Z,1.47
2019-06-08T15:07:32.829Z,1.67
2019-06-08T15:13:38.025Z,1.70
2019-06-08T15:19:39.626Z,3.72
2019-06-08T15:25:42.088Z,0.50
2019-06-08T15:31:44.435Z,1.22
2019-06-08T15:37:47.853Z,2.25
2019-06-08T15:43:50.617Z,1.98
2019-06-08T15:49:53.059Z,1.95
2019-06-08T15:55:58.242Z,2.35
2019-06-08T16:01:59.625Z,1.17
2019-06-08T16:08:02.080Z,1.55
2019-06-08T16:14:04.417Z,2.10
2019-06-08T16:20:06.792Z,2.37
2019-06-08T16:26:09.087Z,1.98
2019-06-08T16:32:11.303Z,2.12
2019-06-08T16:38:13.755Z,1.65
2019-06-08T16:44:15.913Z,2.65
2019-06-08T16:50:24.451Z,2.22
2019-06-08T16:56:22.226Z,1.77
2019-06-08T17:02:24.524Z,2.90
2019-06-08T17:08:26.689Z,2.83
2019-06-08T17:14:32.015Z,2.45
2019-06-08T17:20:36.206Z,3.60
2019-06-08T17:26:38.790Z,2.45
2019-06-08T17:32:42.305Z,5.55
2019-06-08T17:38:46.379Z,1.90
2019-06-08T17:44:48.547Z,2.70
2019-06-08T17:50:50.689Z,3.27
2019-06-08T17:56:52.915Z,3.50
2019-06-08T18:02:57.662Z,3.22
2019-06-08T18:09:00.360Z,2.85
2019-06-08T18:15:03.332Z,2.47
2019-06-08T18:21:08.163Z,4.53
2019-06-08T18:27:10.403Z,1.55
2019-06-08T18:33:12.589Z,2.30
2019-06-08T18:39:14.749Z,2.02
2019-06-08T18:45:18.363Z,1.52
2019-06-08T18:51:20.669Z,2.05
2019-06-08T18:57:27.381Z,2.98
2019-06-08T19:03:29.008Z,2.58
2019-06-08T19:09:33.630Z,2.62
2019-06-08T19:15:40.721Z,3.50
2019-06-08T19:21:40.947Z,2.47
2019-06-08T19:27:47.548Z,2.02
2019-06-08T19:33:51.375Z,2.85
2019-06-08T19:39:51.327Z,2.17
2019-06-08T19:45:53.571Z,3.70
2019-06-08T19:51:58.007Z,2.17
2019-06-08T19:58:00.189Z,3.52
2019-06-08T20:04:02.487Z,2.72
2019-06-08T20:10:07.752Z,2.90
2019-06-08T20:16:10.169Z,3.65
2019-06-08T20:22:12.492Z,2.37
2019-06-08T20:28:17.343Z,3.22
2019-06-08T20:34:19.740Z,2.83
2019-06-08T20:40:23.866Z,3.00
2019-06-08T20:46:28.642Z,3.37
2019-06-08T20:52:30.812Z,3.67
2019-06-08T20:58:33.329Z,4.17
2019-06-08T21:04:38.198Z,2.52
2019-06-08T21:10:39.839Z,2.15
2019-06-08T21:16:42.141Z,3.40
2019-06-08T21:22:44.996Z,2.37
2019-06-08T21:28:51.259Z,3.22
2019-06-08T21:34:53.768Z,3.75
2019-06-08T21:41:02.063Z,3.27
2019-06-08T21:47:02.584Z,3.08
2019-06-08T21:53:07.722Z,4.92
2019-06-08T21:59:13.713Z,2.10
2019-06-08T22:05:21.884Z,3.47
2019-06-08T22:11:24.223Z,2.85
2019-06-08T22:17:27.737Z,3.02
2019-06-08T22:23:30.295Z,2.50
2019-06-08T22:29:32.440Z,2.55
2019-06-08T22:35:37.119Z,1.85
2019-06-08T22:41:38.820Z,3.40
2019-06-08T22:47:40.968Z,1.87
2019-06-08T22:53:43.684Z,3.15
2019-06-08T22:59:47.727Z,3.87
2019-06-08T23:05:50.341Z,3.37
2019-06-08T23:11:52.621Z,2.52
2019-06-08T23:17:57.334Z,2.65
2019-06-08T23:24:01.006Z,3.95
2019-06-08T23:30:05.030Z,3.52
2019-06-08T23:36:39.621Z,2.95
2019-06-08T23:42:11.656Z,3.20
2019-06-08T23:48:14.006Z,2.60
2019-06-08T23:54:18.416Z,3.08
